Ausable Chasm, New York
Current Conditions -  °F | °C
As of 1:53 AM on Friday 19 Dec 2014 (Local Time) from KPBG Reporting Station
Overcast Overcast  
Wind Chill: -7°   Ceiling: 2600
Heat Index: -2°   Visibility: 10mi
Dew Point: -6°   Wind: 10mph
Humidity: 75%   Direction: 320°NW
Pressure: 29.95"   Gusts: NA
Location:  44.5125°N, 73.5235°W
Report Text: KPBG 190653Z AUTO 32009KT 10SM BKN026 OVC034 M02/M06 A2995 RMK AO2 SLP146 T10221061
Loading
Personal Weather Stations






























Interactive Weather Map New forecast layout! Learn more

10-Day Weather Forecast

Advertisements
Track Severe Weather on mobile